createdAt,value
2023-02-18T00:00:10.554Z,19.50
2023-02-18T00:01:10.549Z,19.47
2023-02-18T00:02:10.693Z,19.47
2023-02-18T00:03:10.641Z,19.46
2023-02-18T00:04:10.572Z,19.47
2023-02-18T00:05:10.595Z,19.47
2023-02-18T00:06:10.613Z,19.49
2023-02-18T00:07:10.630Z,19.49
2023-02-18T00:08:10.668Z,19.49
2023-02-18T00:09:10.680Z,19.49
2023-02-18T00:10:10.694Z,19.49
2023-02-18T00:11:10.694Z,19.47
2023-02-18T00:12:10.673Z,19.46
2023-02-18T00:13:10.717Z,19.49
2023-02-18T00:14:10.697Z,19.49
2023-02-18T00:15:10.717Z,19.47
2023-02-18T00:16:11.215Z,19.47
2023-02-18T00:17:10.744Z,19.49
2023-02-18T00:18:10.768Z,19.50
2023-02-18T00:19:10.791Z,19.49
2023-02-18T00:20:10.816Z,19.47
2023-02-18T00:21:10.855Z,19.49
2023-02-18T00:22:10.830Z,19.47
2023-02-18T00:23:10.856Z,19.45
2023-02-18T00:24:10.879Z,19.46
2023-02-18T00:25:10.925Z,19.47
2023-02-18T00:26:11.240Z,19.47
2023-02-18T00:27:10.916Z,19.47
2023-02-18T00:28:10.946Z,19.46
2023-02-18T00:29:10.984Z,19.47
2023-02-18T00:30:10.975Z,19.47
2023-02-18T00:31:11.379Z,19.47
2023-02-18T00:32:11.016Z,19.47
2023-02-18T00:33:10.948Z,19.46
2023-02-18T00:34:10.982Z,19.47
2023-02-18T00:35:11.014Z,19.49
2023-02-18T00:36:10.989Z,19.47
2023-02-18T00:37:11.016Z,19.46
2023-02-18T00:38:11.047Z,19.49
2023-02-18T00:39:11.051Z,19.46
2023-02-18T00:40:11.037Z,19.47
2023-02-18T00:41:11.084Z,19.49
2023-02-18T00:42:11.097Z,19.47
2023-02-18T00:43:11.122Z,19.47
2023-02-18T00:44:11.135Z,19.46
2023-02-18T00:45:11.179Z,19.47
2023-02-18T00:46:11.481Z,19.49
2023-02-18T00:47:11.140Z,19.52
2023-02-18T00:48:11.155Z,19.50
2023-02-18T00:49:11.183Z,19.50
2023-02-18T00:50:11.213Z,19.52
2023-02-18T00:51:11.247Z,19.49
2023-02-18T00:52:11.221Z,19.49
2023-02-18T00:53:11.246Z,19.50
2023-02-18T00:54:11.267Z,19.47
2023-02-18T00:55:11.299Z,19.50
2023-02-18T00:56:11.401Z,19.49
2023-02-18T00:57:11.325Z,19.45
2023-02-18T00:58:11.351Z,19.47
2023-02-18T00:59:12.069Z,19.46
2023-02-18T01:00:11.365Z,19.46
2023-02-18T01:01:11.432Z,19.49
2023-02-18T01:02:11.402Z,19.47
2023-02-18T01:03:11.417Z,19.47
2023-02-18T01:04:11.457Z,19.45
2023-02-18T01:05:11.473Z,19.47
2023-02-18T01:06:11.521Z,19.46
2023-02-18T01:07:11.487Z,19.46
2023-02-18T01:08:11.507Z,19.47
2023-02-18T01:09:11.533Z,19.47
2023-02-18T01:10:11.559Z,19.47
2023-02-18T01:11:11.611Z,19.49
2023-02-18T01:12:11.582Z,19.47
2023-02-18T01:13:11.598Z,19.49
2023-02-18T01:14:11.616Z,19.50
2023-02-18T01:15:11.638Z,19.45
2023-02-18T01:16:11.980Z,19.45
2023-02-18T01:17:11.713Z,19.45
2023-02-18T01:18:11.676Z,19.45
2023-02-18T01:19:11.704Z,19.45
2023-02-18T01:20:11.689Z,19.46
2023-02-18T01:21:11.741Z,19.49
2023-02-18T01:22:11.701Z,19.49
2023-02-18T01:23:11.727Z,19.47
2023-02-18T01:24:11.748Z,19.47
2023-02-18T01:25:11.783Z,19.46
2023-02-18T01:26:11.859Z,19.45
2023-02-18T01:27:11.824Z,19.45
2023-02-18T01:28:11.840Z,19.43
2023-02-18T01:29:12.082Z,19.46
2023-02-18T01:30:11.945Z,19.47
2023-02-18T01:31:12.224Z,19.46
2023-02-18T01:32:12.046Z,19.46
2023-02-18T01:33:11.966Z,19.46
2023-02-18T01:34:11.957Z,19.46
2023-02-18T01:35:11.949Z,19.45
2023-02-18T01:36:12.178Z,19.45
2023-02-18T01:37:11.930Z,19.45
2023-02-18T01:38:11.948Z,19.45
2023-02-18T01:39:11.973Z,19.45
2023-02-18T01:40:11.992Z,19.45
2023-02-18T01:41:12.024Z,19.45
2023-02-18T01:42:11.996Z,19.46
2023-02-18T01:43:12.019Z,19.47
2023-02-18T01:44:12.070Z,19.46
2023-02-18T01:45:12.040Z,19.46
2023-02-18T01:46:12.106Z,19.46
2023-02-18T01:47:12.090Z,19.45
2023-02-18T01:48:12.117Z,19.45
2023-02-18T01:49:12.175Z,19.43
2023-02-18T01:50:12.149Z,19.45
2023-02-18T01:51:12.160Z,19.45
2023-02-18T01:52:12.199Z,19.45
2023-02-18T01:53:12.167Z,19.45
2023-02-18T01:54:12.449Z,19.43
2023-02-18T01:55:12.198Z,19.43
2023-02-18T01:56:12.225Z,19.43
2023-02-18T01:57:12.261Z,19.45
2023-02-18T01:58:12.239Z,19.43
2023-02-18T01:59:12.265Z,19.45
2023-02-18T02:00:12.307Z,19.46
2023-02-18T02:01:12.417Z,19.45
2023-02-18T02:02:12.317Z,19.45
2023-02-18T02:03:12.296Z,19.45
2023-02-18T02:04:12.334Z,19.43
2023-02-18T02:05:12.334Z,19.43
2023-02-18T02:06:12.299Z,19.46
2023-02-18T02:07:12.316Z,19.45
2023-02-18T02:08:12.287Z,19.43
2023-02-18T02:09:12.321Z,19.43
2023-02-18T02:10:12.307Z,19.43
2023-02-18T02:11:12.316Z,19.43
2023-02-18T02:12:12.314Z,19.42
2023-02-18T02:13:12.310Z,19.43
2023-02-18T02:14:12.336Z,19.43
2023-02-18T02:15:12.334Z,19.43
2023-02-18T02:16:12.475Z,19.46
2023-02-18T02:17:12.376Z,19.45
2023-02-18T02:18:12.416Z,19.43
2023-02-18T02:19:12.708Z,19.43
2023-02-18T02:20:12.463Z,19.42
2023-02-18T02:21:12.467Z,19.40
2023-02-18T02:22:12.436Z,19.40
2023-02-18T02:23:12.466Z,19.43
2023-02-18T02:24:12.481Z,19.42
2023-02-18T02:25:12.511Z,19.43
2023-02-18T02:26:12.497Z,19.42
2023-02-18T02:27:12.491Z,19.43
2023-02-18T02:28:12.516Z,19.43
2023-02-18T02:29:12.540Z,19.43
2023-02-18T02:30:12.665Z,19.42
2023-02-18T02:31:12.687Z,19.43
2023-02-18T02:32:12.602Z,19.43
2023-02-18T02:33:12.635Z,19.43
2023-02-18T02:34:12.666Z,19.45
2023-02-18T02:35:12.684Z,19.42
2023-02-18T02:36:12.725Z,19.43
2023-02-18T02:37:12.726Z,19.40
2023-02-18T02:38:12.702Z,19.42
2023-02-18T02:39:12.716Z,19.42
2023-02-18T02:40:12.742Z,19.40
2023-02-18T02:41:12.812Z,19.42
2023-02-18T02:42:12.774Z,19.40
2023-02-18T02:43:12.793Z,19.40
2023-02-18T02:44:12.818Z,19.42
2023-02-18T02:45:12.835Z,19.42
2023-02-18T02:46:13.108Z,19.40
2023-02-18T02:47:12.868Z,19.38
2023-02-18T02:48:12.888Z,19.42
2023-02-18T02:49:12.914Z,19.42
2023-02-18T02:50:12.936Z,19.40
2023-02-18T02:51:12.973Z,19.39
2023-02-18T02:52:12.950Z,19.39
2023-02-18T02:53:13.002Z,19.38
2023-02-18T02:54:12.970Z,19.38
2023-02-18T02:55:12.984Z,19.39
2023-02-18T02:56:13.016Z,19.38
2023-02-18T02:57:12.999Z,19.38
2023-02-18T02:58:13.026Z,19.40
2023-02-18T02:59:13.050Z,19.42
2023-02-18T03:00:13.082Z,19.40
2023-02-18T03:01:13.143Z,19.40
2023-02-18T03:02:13.086Z,19.39
2023-02-18T03:03:13.155Z,19.39
2023-02-18T03:04:13.380Z,19.42
2023-02-18T03:05:13.124Z,19.42
2023-02-18T03:06:13.144Z,19.42
2023-02-18T03:07:13.164Z,19.39
2023-02-18T03:08:13.195Z,19.40
2023-02-18T03:09:13.441Z,19.39
2023-02-18T03:10:13.235Z,19.39
2023-02-18T03:11:13.264Z,19.42
2023-02-18T03:12:13.252Z,19.39
2023-02-18T03:13:13.269Z,19.40
2023-02-18T03:14:13.295Z,19.40
2023-02-18T03:15:13.316Z,19.42
2023-02-18T03:16:13.427Z,19.39
2023-02-18T03:17:13.360Z,19.39
2023-02-18T03:18:13.415Z,19.40
2023-02-18T03:19:13.610Z,19.39
2023-02-18T03:20:13.432Z,19.38
2023-02-18T03:21:13.471Z,19.39
2023-02-18T03:22:13.461Z,19.42
2023-02-18T03:23:13.429Z,19.43
2023-02-18T03:24:13.454Z,19.38
2023-02-18T03:25:13.498Z,19.39
2023-02-18T03:26:13.464Z,19.39
2023-02-18T03:27:13.503Z,19.38
2023-02-18T03:28:13.525Z,19.35
2023-02-18T03:29:13.547Z,19.35
2023-02-18T03:30:13.726Z,19.38
2023-02-18T03:31:13.605Z,19.35
2023-02-18T03:32:13.657Z,19.38
2023-02-18T03:33:13.582Z,19.38
2023-02-18T03:34:13.602Z,19.38
2023-02-18T03:35:13.625Z,19.40
2023-02-18T03:36:13.654Z,19.39
2023-02-18T03:37:13.679Z,19.43
2023-02-18T03:38:13.707Z,19.42
2023-02-18T03:39:13.737Z,19.43
2023-02-18T03:40:13.752Z,19.39
2023-02-18T03:41:13.802Z,19.38
2023-02-18T03:42:13.800Z,19.40
2023-02-18T03:43:13.787Z,19.40
2023-02-18T03:44:13.803Z,19.39
2023-02-18T03:45:13.831Z,19.40
2023-02-18T03:46:13.885Z,19.39
2023-02-18T03:47:13.868Z,19.39
2023-02-18T03:48:13.907Z,19.38
2023-02-18T03:49:13.882Z,19.35
2023-02-18T03:50:13.915Z,19.38
2023-02-18T03:51:13.936Z,19.39
2023-02-18T03:52:13.927Z,19.38
2023-02-18T03:53:13.928Z,19.38
2023-02-18T03:54:13.942Z,19.39
2023-02-18T03:55:13.963Z,19.40
2023-02-18T03:56:13.988Z,19.40
2023-02-18T03:57:14.029Z,19.39
2023-02-18T03:58:14.011Z,19.39
2023-02-18T03:59:14.023Z,19.38
2023-02-18T04:00:14.038Z,19.40
2023-02-18T04:01:14.128Z,19.40
2023-02-18T04:02:14.058Z,19.42
2023-02-18T04:03:14.088Z,19.40
2023-02-18T04:04:14.135Z,19.38
2023-02-18T04:05:14.077Z,19.38
2023-02-18T04:06:14.101Z,19.39
2023-02-18T04:07:14.135Z,19.42
2023-02-18T04:08:14.118Z,19.38
2023-02-18T04:09:14.131Z,19.35
2023-02-18T04:10:14.146Z,19.38
2023-02-18T04:11:14.163Z,19.39
2023-02-18T04:12:14.195Z,19.40
2023-02-18T04:13:14.207Z,19.39
2023-02-18T04:14:14.177Z,19.38
2023-02-18T04:15:14.207Z,19.39
2023-02-18T04:16:14.235Z,19.40
2023-02-18T04:17:14.223Z,19.40
2023-02-18T04:18:14.249Z,19.40
2023-02-18T04:19:14.277Z,19.40
2023-02-18T04:20:14.316Z,19.38
2023-02-18T04:21:14.323Z,19.38
2023-02-18T04:22:14.309Z,19.39
2023-02-18T04:23:14.333Z,19.40
2023-02-18T04:24:14.346Z,19.38
2023-02-18T04:25:14.384Z,19.39
2023-02-18T04:26:14.364Z,19.38
2023-02-18T04:27:14.387Z,19.38
2023-02-18T04:28:14.411Z,19.38
2023-02-18T04:29:14.463Z,19.38
2023-02-18T04:30:14.610Z,19.39
2023-02-18T04:31:14.552Z,19.35
2023-02-18T04:32:14.448Z,19.39
2023-02-18T04:33:14.468Z,19.35
2023-02-18T04:34:14.482Z,19.38
2023-02-18T04:35:14.514Z,19.35
2023-02-18T04:36:14.489Z,19.38
2023-02-18T04:37:14.500Z,19.35
2023-02-18T04:38:14.525Z,19.39
2023-02-18T04:39:14.547Z,19.35
2023-02-18T04:40:14.587Z,19.38
2023-02-18T04:41:14.557Z,19.39
2023-02-18T04:42:14.581Z,19.42
2023-02-18T04:43:14.600Z,19.39
2023-02-18T04:44:14.629Z,19.35
2023-02-18T04:45:14.750Z,19.38
2023-02-18T04:46:14.707Z,19.35
2023-02-18T04:47:14.636Z,19.38
2023-02-18T04:48:14.648Z,19.35
2023-02-18T04:49:14.670Z,19.35
2023-02-18T04:50:14.698Z,19.38
2023-02-18T04:51:14.686Z,19.39
2023-02-18T04:52:14.698Z,19.35
2023-02-18T04:53:14.726Z,19.32
2023-02-18T04:54:14.734Z,19.35
2023-02-18T04:55:14.785Z,19.35
2023-02-18T04:56:14.764Z,19.35
2023-02-18T04:57:14.792Z,19.38
2023-02-18T04:58:14.814Z,19.38
2023-02-18T04:59:14.838Z,19.35
2023-02-18T05:00:14.882Z,19.34
2023-02-18T05:01:14.934Z,19.35
2023-02-18T05:02:14.861Z,19.38
2023-02-18T05:03:14.876Z,19.34
2023-02-18T05:04:14.955Z,19.35
2023-02-18T05:05:14.929Z,19.38
2023-02-18T05:06:14.908Z,19.39
2023-02-18T05:07:14.914Z,19.39
2023-02-18T05:08:14.905Z,19.38
2023-02-18T05:09:14.932Z,19.38
2023-02-18T05:10:14.960Z,19.39
2023-02-18T05:11:14.940Z,19.40
2023-02-18T05:12:14.980Z,19.38
2023-02-18T05:13:15.003Z,19.35
2023-02-18T05:14:15.012Z,19.34
2023-02-18T05:15:15.048Z,19.35
2023-02-18T05:16:15.113Z,19.38
2023-02-18T05:17:15.093Z,19.40
2023-02-18T05:18:15.075Z,19.39
2023-02-18T05:19:15.096Z,19.40
2023-02-18T05:20:15.736Z,19.42
2023-02-18T05:21:15.141Z,19.42
2023-02-18T05:22:15.157Z,19.40
2023-02-18T05:23:15.179Z,19.39
2023-02-18T05:24:15.193Z,19.39
2023-02-18T05:25:15.225Z,19.39
2023-02-18T05:26:15.254Z,19.39
2023-02-18T05:27:15.280Z,19.38
2023-02-18T05:28:15.379Z,19.35
2023-02-18T05:29:15.322Z,19.38
2023-02-18T05:30:15.366Z,19.35
2023-02-18T05:31:15.389Z,19.38
2023-02-18T05:32:15.280Z,19.34
2023-02-18T05:33:15.325Z,19.38
2023-02-18T05:34:15.322Z,19.35
2023-02-18T05:35:15.334Z,19.38
2023-02-18T05:36:15.331Z,19.34
2023-02-18T05:37:15.331Z,19.32
2023-02-18T05:38:15.317Z,19.34
2023-02-18T05:39:15.331Z,19.32
2023-02-18T05:40:15.373Z,19.34
2023-02-18T05:41:15.359Z,19.35
2023-02-18T05:42:15.381Z,19.35
2023-02-18T05:43:15.408Z,19.35
2023-02-18T05:44:15.446Z,19.34
2023-02-18T05:45:15.480Z,19.34
2023-02-18T05:46:15.507Z,19.34
2023-02-18T05:47:15.468Z,19.35
2023-02-18T05:48:15.491Z,19.39
2023-02-18T05:49:15.533Z,19.39
2023-02-18T05:50:15.532Z,19.39
2023-02-18T05:51:15.505Z,19.39
2023-02-18T05:52:15.530Z,19.39
2023-02-18T05:53:17.584Z,19.40
2023-02-18T05:54:15.559Z,19.40
2023-02-18T05:55:15.604Z,19.38
2023-02-18T05:56:15.575Z,19.38
2023-02-18T05:57:15.591Z,19.34
2023-02-18T05:58:15.618Z,19.38
2023-02-18T05:59:15.631Z,19.38
2023-02-18T06:00:15.677Z,19.35
2023-02-18T06:01:15.680Z,19.31
2023-02-18T06:02:15.645Z,19.34
2023-02-18T06:03:15.681Z,19.34
2023-02-18T06:04:15.697Z,19.34
2023-02-18T06:05:15.753Z,19.38
2023-02-18T06:06:15.819Z,19.35
2023-02-18T06:07:15.757Z,19.34
2023-02-18T06:08:15.771Z,19.34
2023-02-18T06:09:15.798Z,19.32
2023-02-18T06:10:15.839Z,19.32
2023-02-18T06:11:15.822Z,19.31
2023-02-18T06:12:15.840Z,19.31
2023-02-18T06:13:15.867Z,19.28
2023-02-18T06:14:15.888Z,19.34
2023-02-18T06:15:15.925Z,19.31
2023-02-18T06:16:15.955Z,19.31
2023-02-18T06:17:15.904Z,19.30
2023-02-18T06:18:15.929Z,19.31
2023-02-18T06:19:15.952Z,19.32
2023-02-18T06:20:16.002Z,19.32
2023-02-18T06:21:15.999Z,19.31
2023-02-18T06:22:15.973Z,19.32
2023-02-18T06:23:16.010Z,19.32
2023-02-18T06:24:16.022Z,19.32
2023-02-18T06:25:16.054Z,19.34
2023-02-18T06:26:16.080Z,19.32
2023-02-18T06:27:16.095Z,19.32
2023-02-18T06:28:16.115Z,19.31
2023-02-18T06:29:16.142Z,19.32
2023-02-18T06:30:16.229Z,19.32
2023-02-18T06:31:16.297Z,19.31
2023-02-18T06:32:16.297Z,19.31
2023-02-18T06:33:16.203Z,19.31
2023-02-18T06:34:16.179Z,19.31
2023-02-18T06:35:16.214Z,19.31
2023-02-18T06:36:16.231Z,19.32
2023-02-18T06:37:16.248Z,19.32
2023-02-18T06:38:16.224Z,19.34
2023-02-18T06:39:16.253Z,19.34
2023-02-18T06:40:16.252Z,19.34
2023-02-18T06:41:16.231Z,19.34
2023-02-18T06:42:16.270Z,19.34
2023-02-18T06:43:16.253Z,19.38
2023-02-18T06:44:16.293Z,19.38
2023-02-18T06:45:16.343Z,19.40
2023-02-18T06:46:16.376Z,19.39
2023-02-18T06:47:16.374Z,19.35
2023-02-18T06:48:16.410Z,19.38
2023-02-18T06:49:16.364Z,19.39
2023-02-18T06:50:16.380Z,19.39
2023-02-18T06:51:16.349Z,19.35
2023-02-18T06:52:16.374Z,19.35
2023-02-18T06:53:16.463Z,19.39
2023-02-18T06:54:16.436Z,19.40
2023-02-18T06:55:16.478Z,19.39
2023-02-18T06:56:16.444Z,19.40
2023-02-18T06:57:16.463Z,19.42
2023-02-18T06:58:16.465Z,19.40
2023-02-18T06:59:16.457Z,19.39
2023-02-18T07:00:16.465Z,19.39
2023-02-18T07:01:16.551Z,19.39
2023-02-18T07:02:16.477Z,19.42
2023-02-18T07:03:16.526Z,19.40
2023-02-18T07:04:16.540Z,19.40
2023-02-18T07:05:16.555Z,19.40
2023-02-18T07:06:16.544Z,19.40
2023-02-18T07:07:16.525Z,19.39
2023-02-18T07:08:16.562Z,19.39
2023-02-18T07:09:16.620Z,19.39
2023-02-18T07:10:16.855Z,19.42
2023-02-18T07:11:16.614Z,19.40
2023-02-18T07:12:16.598Z,19.39
2023-02-18T07:13:16.630Z,19.39
2023-02-18T07:14:16.660Z,19.42
2023-02-18T07:15:16.655Z,19.42
2023-02-18T07:16:16.736Z,19.43
2023-02-18T07:17:16.665Z,19.45
2023-02-18T07:18:16.657Z,19.42
2023-02-18T07:19:16.679Z,19.46
2023-02-18T07:20:16.703Z,19.47
2023-02-18T07:21:16.680Z,19.52
2023-02-18T07:22:16.722Z,19.49
2023-02-18T07:23:16.691Z,19.49
2023-02-18T07:24:16.718Z,19.52
2023-02-18T07:25:16.793Z,19.50
2023-02-18T07:26:16.785Z,19.52
2023-02-18T07:27:16.789Z,19.52
2023-02-18T07:28:16.814Z,19.50
2023-02-18T07:29:16.854Z,19.50
2023-02-18T07:30:16.992Z,19.53
2023-02-18T07:31:16.967Z,19.53
2023-02-18T07:32:16.953Z,19.55
2023-02-18T07:33:16.893Z,19.57
2023-02-18T07:34:16.920Z,19.55
2023-02-18T07:35:17.035Z,19.57
2023-02-18T07:36:16.985Z,19.57
2023-02-18T07:37:16.966Z,19.55
2023-02-18T07:38:16.996Z,19.53
2023-02-18T07:39:17.031Z,19.55
2023-02-18T07:40:17.309Z,19.55
2023-02-18T07:41:17.092Z,19.57
2023-02-18T07:42:17.074Z,19.57
2023-02-18T07:43:17.280Z,19.57
2023-02-18T07:44:17.072Z,19.58
2023-02-18T07:45:17.125Z,19.62
2023-02-18T07:46:17.108Z,19.61
2023-02-18T07:47:17.150Z,19.62
2023-02-18T07:48:17.155Z,19.62
2023-02-18T07:49:17.141Z,19.64
2023-02-18T07:50:17.195Z,19.62
2023-02-18T07:51:17.176Z,19.64
2023-02-18T07:52:17.204Z,19.62
2023-02-18T07:53:17.228Z,19.64
2023-02-18T07:54:17.261Z,19.65
2023-02-18T07:55:17.308Z,19.65
2023-02-18T07:56:17.300Z,19.65
2023-02-18T07:57:17.348Z,19.70
2023-02-18T07:58:17.321Z,19.71
2023-02-18T07:59:17.352Z,19.72
2023-02-18T08:00:17.378Z,19.72
2023-02-18T08:01:17.377Z,19.79
2023-02-18T08:02:17.377Z,19.78
2023-02-18T08:03:17.367Z,19.82
2023-02-18T08:04:17.463Z,19.79
2023-02-18T08:05:17.422Z,19.79
2023-02-18T08:06:17.457Z,19.76
2023-02-18T08:07:17.480Z,19.79
2023-02-18T08:08:17.473Z,19.80
2023-02-18T08:09:17.462Z,19.80
2023-02-18T08:10:17.453Z,19.80
2023-02-18T08:11:19.712Z,19.83
2023-02-18T08:12:17.447Z,19.85
2023-02-18T08:13:17.469Z,19.85
2023-02-18T08:14:17.453Z,19.86
2023-02-18T08:15:17.485Z,19.87
2023-02-18T08:16:17.522Z,19.90
2023-02-18T08:17:17.467Z,19.90
2023-02-18T08:18:17.496Z,19.92
2023-02-18T08:19:17.483Z,19.94
2023-02-18T08:20:17.499Z,19.98
2023-02-18T08:21:17.484Z,20.00
2023-02-18T08:22:17.520Z,20.04
2023-02-18T08:23:17.542Z,20.05
2023-02-18T08:24:17.570Z,20.08
2023-02-18T08:25:29.022Z,20.08
2023-02-18T08:26:17.569Z,20.08
2023-02-18T08:27:17.570Z,20.08
2023-02-18T08:28:17.588Z,20.07
2023-02-18T08:29:17.658Z,20.08
2023-02-18T08:30:17.650Z,20.08
2023-02-18T08:31:17.773Z,20.08
2023-02-18T08:32:17.661Z,20.10
2023-02-18T08:33:17.677Z,20.12
2023-02-18T08:34:17.718Z,20.12
2023-02-18T08:35:17.705Z,20.08
2023-02-18T08:36:17.730Z,20.07
2023-02-18T08:37:17.750Z,20.10
2023-02-18T08:38:17.736Z,20.12
2023-02-18T08:39:17.729Z,20.10
2023-02-18T08:40:17.714Z,20.10
2023-02-18T08:41:17.743Z,20.12
2023-02-18T08:42:17.736Z,20.13
2023-02-18T08:43:17.717Z,20.15
2023-02-18T08:44:17.741Z,20.16
2023-02-18T08:45:17.799Z,20.13
2023-02-18T08:46:33.241Z,20.15
2023-02-18T08:48:19.674Z,20.13
2023-02-18T08:48:20.326Z,20.13
2023-02-18T08:49:17.846Z,20.13
2023-02-18T08:50:17.823Z,20.12
2023-02-18T08:51:17.817Z,20.07
2023-02-18T08:52:17.846Z,20.05
2023-02-18T08:53:17.871Z,20.05
2023-02-18T08:54:17.864Z,20.05
2023-02-18T08:55:17.855Z,20.07
2023-02-18T08:56:17.834Z,20.05
2023-02-18T08:57:17.869Z,20.05
2023-02-18T08:58:17.891Z,20.04
2023-02-18T08:59:17.920Z,20.05
2023-02-18T09:00:17.946Z,20.10
2023-02-18T09:01:18.026Z,20.08
2023-02-18T09:02:18.007Z,20.08
2023-02-18T09:03:17.989Z,20.07
2023-02-18T09:04:18.104Z,20.04
2023-02-18T09:05:18.050Z,20.04
2023-02-18T09:06:18.040Z,20.07
2023-02-18T09:07:18.071Z,20.07
2023-02-18T09:08:18.109Z,20.10
2023-02-18T09:09:18.116Z,20.10
2023-02-18T09:10:18.103Z,20.07
2023-02-18T09:11:18.100Z,20.05
2023-02-18T09:12:18.132Z,20.10
2023-02-18T09:13:18.116Z,20.10
2023-02-18T09:14:18.162Z,20.13
2023-02-18T09:15:18.146Z,20.13
2023-02-18T09:16:18.133Z,20.19
2023-02-18T09:17:18.202Z,20.25
2023-02-18T09:18:18.181Z,20.23
2023-02-18T09:19:18.231Z,20.20
2023-02-18T09:20:18.211Z,20.19
2023-02-18T09:21:18.245Z,20.22
2023-02-18T09:22:18.276Z,20.23
2023-02-18T09:23:18.264Z,20.27
2023-02-18T09:24:18.269Z,20.26
2023-02-18T09:25:18.260Z,20.25
2023-02-18T09:26:18.266Z,20.23
2023-02-18T09:27:18.243Z,20.22
2023-02-18T09:28:18.278Z,20.23
2023-02-18T09:29:18.288Z,20.25
2023-02-18T09:30:18.381Z,20.30
2023-02-18T09:31:18.494Z,20.31
2023-02-18T09:32:32.567Z,20.33
2023-02-18T09:33:18.358Z,20.31
2023-02-18T09:34:18.346Z,20.27
2023-02-18T09:35:18.326Z,20.26
2023-02-18T09:36:18.312Z,20.25
2023-02-18T09:37:18.341Z,20.25
2023-02-18T09:38:18.334Z,20.27
2023-02-18T09:39:18.383Z,20.30
2023-02-18T09:40:18.382Z,20.27
2023-02-18T09:41:18.377Z,20.27
2023-02-18T09:42:18.398Z,20.30
2023-02-18T09:43:18.426Z,20.27
2023-02-18T09:44:18.472Z,20.30
2023-02-18T09:45:18.447Z,20.30
2023-02-18T09:46:18.523Z,20.31
2023-02-18T09:47:18.513Z,20.30
2023-02-18T09:48:18.499Z,20.34
2023-02-18T09:49:18.581Z,20.33
2023-02-18T09:50:18.520Z,20.35
2023-02-18T09:51:18.552Z,20.42
2023-02-18T09:52:18.544Z,20.46
2023-02-18T09:53:18.548Z,20.46
2023-02-18T09:54:19.224Z,20.40
2023-02-18T09:55:18.521Z,20.33
2023-02-18T09:56:18.514Z,20.33
2023-02-18T09:57:18.531Z,20.34
2023-02-18T09:58:18.519Z,20.38
2023-02-18T09:59:18.575Z,20.40
2023-02-18T10:00:18.559Z,20.44
2023-02-18T10:01:18.632Z,20.41
2023-02-18T10:02:19.230Z,20.37
2023-02-18T10:03:18.601Z,20.38
2023-02-18T10:04:18.619Z,20.41
2023-02-18T10:05:18.625Z,20.41
2023-02-18T10:06:18.612Z,20.44
2023-02-18T10:07:18.594Z,20.48
2023-02-18T10:08:18.584Z,20.51
2023-02-18T10:09:18.624Z,20.51
2023-02-18T10:10:18.628Z,20.53
2023-02-18T10:11:18.624Z,20.57
2023-02-18T10:12:18.594Z,20.56
2023-02-18T10:13:18.580Z,20.54
2023-02-18T10:14:18.606Z,20.54
2023-02-18T10:15:18.617Z,20.54
2023-02-18T10:16:18.696Z,20.56
2023-02-18T10:17:18.595Z,20.57
2023-02-18T10:18:18.577Z,20.57
2023-02-18T10:19:18.584Z,20.58
2023-02-18T10:20:18.578Z,20.63
2023-02-18T10:21:18.583Z,20.63
2023-02-18T10:22:18.554Z,20.61
2023-02-18T10:23:18.585Z,20.61
2023-02-18T10:24:18.652Z,20.63
2023-02-18T10:25:18.659Z,20.68
2023-02-18T10:26:18.631Z,20.69
2023-02-18T10:27:18.622Z,20.71
2023-02-18T10:28:18.622Z,20.72
2023-02-18T10:29:21.396Z,20.72
2023-02-18T10:30:18.894Z,20.75
2023-02-18T10:31:18.805Z,20.76
2023-02-18T10:32:18.663Z,20.76
2023-02-18T10:33:18.688Z,20.72
2023-02-18T10:34:18.753Z,20.69
2023-02-18T10:35:18.733Z,20.66
2023-02-18T10:36:18.727Z,20.64
2023-02-18T10:37:18.864Z,20.68
2023-02-18T10:38:18.710Z,20.66
2023-02-18T10:39:18.728Z,20.66
2023-02-18T10:40:18.871Z,20.60
2023-02-18T10:41:18.711Z,20.56
2023-02-18T10:42:18.699Z,20.54
2023-02-18T10:43:18.716Z,20.51
2023-02-18T10:44:18.717Z,20.50
2023-02-18T10:45:18.702Z,20.51
2023-02-18T10:46:18.727Z,20.54
2023-02-18T10:47:18.700Z,20.53
2023-02-18T10:48:18.745Z,20.51
2023-02-18T10:49:18.744Z,20.51
2023-02-18T10:50:18.854Z,20.48
2023-02-18T10:51:18.777Z,20.42
2023-02-18T10:52:18.763Z,20.41
2023-02-18T10:53:19.022Z,20.40
2023-02-18T10:54:18.839Z,20.38
2023-02-18T10:55:19.024Z,20.41
2023-02-18T10:56:18.880Z,20.44
2023-02-18T10:57:18.853Z,20.44
2023-02-18T10:58:18.835Z,20.42
2023-02-18T10:59:18.826Z,20.40
2023-02-18T11:00:18.964Z,20.41
2023-02-18T11:01:18.880Z,20.42
2023-02-18T11:02:18.838Z,20.41
2023-02-18T11:03:18.862Z,20.40
2023-02-18T11:04:19.051Z,20.41
2023-02-18T11:05:18.883Z,20.41
2023-02-18T11:06:18.930Z,20.40
2023-02-18T11:07:18.902Z,20.42
2023-02-18T11:08:18.921Z,20.46
2023-02-18T11:09:18.937Z,20.44
2023-02-18T11:10:18.911Z,20.44
2023-02-18T11:11:18.931Z,20.44
2023-02-18T11:12:18.899Z,20.53
2023-02-18T11:13:18.892Z,20.57
2023-02-18T11:14:18.933Z,20.56
2023-02-18T11:15:18.934Z,20.53
2023-02-18T11:16:18.919Z,20.50
2023-02-18T11:17:18.903Z,20.48
2023-02-18T11:18:18.893Z,20.46
2023-02-18T11:19:18.884Z,20.46
2023-02-18T11:20:25.277Z,20.44
2023-02-18T11:21:21.188Z,20.41
2023-02-18T11:22:18.905Z,20.40
2023-02-18T11:23:18.936Z,20.38
2023-02-18T11:24:18.930Z,20.38
2023-02-18T11:25:18.987Z,20.40
2023-02-18T11:26:18.960Z,20.40
2023-02-18T11:27:19.064Z,20.40
2023-02-18T11:28:19.003Z,20.41
2023-02-18T11:29:19.010Z,20.42
2023-02-18T11:30:19.074Z,20.46
2023-02-18T11:31:19.076Z,20.44
2023-02-18T11:32:19.099Z,20.48
2023-02-18T11:33:19.054Z,20.50
2023-02-18T11:34:19.056Z,20.50
2023-02-18T11:35:19.070Z,20.51
2023-02-18T11:36:19.099Z,20.50
2023-02-18T11:37:19.129Z,20.46
2023-02-18T11:38:19.151Z,20.48
2023-02-18T11:39:19.185Z,20.46
2023-02-18T11:40:19.220Z,20.44
2023-02-18T11:41:19.240Z,20.44
2023-02-18T11:42:19.222Z,20.46
2023-02-18T11:43:19.253Z,20.51
2023-02-18T11:44:19.261Z,20.56
2023-02-18T11:45:19.253Z,20.57
2023-02-18T11:46:19.304Z,20.61
2023-02-18T11:47:19.303Z,20.60
2023-02-18T11:48:19.315Z,20.57
2023-02-18T11:49:19.312Z,20.56
2023-02-18T11:50:19.292Z,20.60
2023-02-18T11:51:19.310Z,20.69
2023-02-18T11:52:19.341Z,20.71
2023-02-18T11:53:19.323Z,20.75
2023-02-18T11:54:19.354Z,20.73
2023-02-18T11:55:19.347Z,20.73
2023-02-18T11:56:19.344Z,20.78
2023-02-18T11:57:19.352Z,20.78
2023-02-18T11:58:19.348Z,20.79
2023-02-18T11:59:19.327Z,20.79
2023-02-18T12:00:19.318Z,20.75
2023-02-18T12:01:19.351Z,20.69
2023-02-18T12:02:19.390Z,20.66
2023-02-18T12:03:19.361Z,20.64
2023-02-18T12:04:19.335Z,20.64
2023-02-18T12:05:19.377Z,20.64
2023-02-18T12:06:19.377Z,20.61
2023-02-18T12:07:19.368Z,20.61
2023-02-18T12:08:19.377Z,20.57
2023-02-18T12:09:19.378Z,20.57
2023-02-18T12:10:19.401Z,20.54
2023-02-18T12:11:19.389Z,20.50
2023-02-18T12:12:19.421Z,20.42
2023-02-18T12:13:19.477Z,20.42
2023-02-18T12:14:19.502Z,20.44
2023-02-18T12:15:19.483Z,20.50
2023-02-18T12:16:19.515Z,20.51
2023-02-18T12:17:19.522Z,20.53
2023-02-18T12:18:19.509Z,20.56
2023-02-18T12:19:19.532Z,20.60
2023-02-18T12:20:19.527Z,20.60
2023-02-18T12:21:19.513Z,20.57
2023-02-18T12:22:19.532Z,20.58
2023-02-18T12:23:19.508Z,20.66
2023-02-18T12:24:19.496Z,20.71
2023-02-18T12:25:19.484Z,20.75
2023-02-18T12:26:19.506Z,20.79
2023-02-18T12:27:19.511Z,20.87
2023-02-18T12:28:19.539Z,20.88
2023-02-18T12:29:19.587Z,20.83
2023-02-18T12:30:19.597Z,20.81
2023-02-18T12:31:19.666Z,20.78
2023-02-18T12:32:19.720Z,20.73
2023-02-18T12:33:19.632Z,20.72
2023-02-18T12:34:19.612Z,20.73
2023-02-18T12:35:19.666Z,20.75
2023-02-18T12:36:19.658Z,20.73
2023-02-18T12:37:19.871Z,20.75
2023-02-18T12:38:19.665Z,20.78
2023-02-18T12:39:19.707Z,20.81
2023-02-18T12:40:19.679Z,20.87
2023-02-18T12:41:19.686Z,20.90
2023-02-18T12:42:19.675Z,20.91
2023-02-18T12:43:19.706Z,20.93
2023-02-18T12:44:19.736Z,20.97
2023-02-18T12:45:19.787Z,21.05
2023-02-18T12:46:19.765Z,21.09
2023-02-18T12:47:19.762Z,21.09
2023-02-18T12:48:19.744Z,21.09
2023-02-18T12:49:19.776Z,21.09
2023-02-18T12:50:19.798Z,21.13
2023-02-18T12:51:19.852Z,21.15
2023-02-18T12:52:19.832Z,21.11